Time;durP1;ratioP1;P1;durP2;ratioP2;P2;SDS_P1;SDS_P2;PMS_P1;PMS_P2;Temp;Humidity;BMP_temperature;BMP_pressure;BME280_temperature;BME280_humidity;BME280_pressure;Samples;Min_cycle;Max_cycle;Signal;HPM_P1;HPM_P2
2023/04/05 00:00:51;;;;;;;5.78;3.40;;;11.70;73.20;;;;;;10942356;32;20509;-73
2023/04/05 00:06:53;;;;;;;6.03;4.00;;;11.80;74.30;;;;;;10941955;32;20052;-74
2023/04/05 00:12:56;;;;;;;6.07;4.25;;;11.80;74.50;;;;;;10938269;32;20030;-74
2023/04/05 00:18:59;;;;;;;6.53;4.90;;;11.60;74.40;;;;;;10938057;32;20263;-73
2023/04/05 00:25:05;;;;;;;6.82;4.72;;;11.40;74.70;;;;;;10942873;32;20038;-76
2023/04/05 00:31:07;;;;;;;6.93;4.43;;;11.50;74.20;;;;;;10941149;32;20057;-76
2023/04/05 00:37:10;;;;;;;6.57;4.62;;;11.60;74.00;;;;;;10942727;32;20387;-77
2023/04/05 00:43:13;;;;;;;3.95;3.10;;;11.50;74.20;;;;;;10942477;32;20291;-76
2023/04/05 00:49:16;;;;;;;8.32;3.78;;;11.30;74.10;;;;;;10942373;32;20042;-77
2023/04/05 00:55:19;;;;;;;6.85;4.75;;;11.30;73.70;;;;;;10941152;32;20020;-76
2023/04/05 01:01:25;;;;;;;7.12;4.40;;;11.20;72.80;;;;;;10942083;32;20041;-77
2023/04/05 01:07:37;;;;;;;4.25;2.62;;;11.20;71.70;;;;;;10942016;32;20050;-76
2023/04/05 01:13:40;;;;;;;7.07;4.55;;;11.10;72.00;;;;;;10941930;32;20089;-76
2023/04/05 01:19:46;;;;;;;7.03;4.18;;;10.90;72.50;;;;;;10941950;32;20317;-76
2023/04/05 01:25:58;;;;;;;6.05;4.37;;;11.00;72.00;;;;;;10940413;32;20038;-76
2023/04/05 01:32:30;;;;;;;6.25;4.30;;;11.00;71.40;;;;;;10942067;32;20042;-76
2023/04/05 01:38:37;;;;;;;5.57;4.30;;;11.00;71.80;;;;;;10941557;32;20419;-76
2023/04/05 01:44:39;;;;;;;6.85;5.03;;;11.00;71.40;;;;;;10940407;32;20027;-76
2023/04/05 01:50:41;;;;;;;6.82;4.80;;;10.90;71.50;;;;;;10940469;32;20053;-76
2023/04/05 01:56:44;;;;;;;6.85;4.62;;;10.90;70.90;;;;;;10947315;32;20328;-76
2023/04/05 02:02:47;;;;;;;7.62;3.78;;;10.90;71.30;;;;;;10948000;32;20369;-77
2023/04/05 02:08:49;;;;;;;7.55;4.68;;;10.80;71.60;;;;;;10945133;32;20084;-76
2023/04/05 02:14:52;;;;;;;7.93;4.25;;;10.80;71.30;;;;;;10940797;32;20022;-76
2023/04/05 02:21:01;;;;;;;6.07;4.37;;;10.80;71.40;;;;;;10944655;32;20053;-76
2023/04/05 02:27:03;;;;;;;4.07;2.42;;;10.70;71.20;;;;;;10946689;32;20321;-77
2023/04/05 02:33:08;;;;;;;7.72;4.20;;;10.50;71.80;;;;;;10947000;32;20385;-77
2023/04/05 02:39:10;;;;;;;4.97;3.42;;;10.50;72.60;;;;;;10946771;32;20030;-77
2023/04/05 02:45:13;;;;;;;3.33;2.53;;;10.50;72.90;;;;;;10944907;32;20027;-77
2023/04/05 02:51:15;;;;;;;5.28;3.55;;;10.50;72.30;;;;;;10944111;32;20019;-77
2023/04/05 02:57:18;;;;;;;6.47;3.30;;;10.40;72.10;;;;;;10944574;32;20428;-77
2023/04/05 03:03:22;;;;;;;5.43;3.12;;;10.30;72.00;;;;;;10944602;32;20022;-76
2023/04/05 03:09:26;;;;;;;2.78;2.12;;;10.30;71.90;;;;;;10930327;32;20345;-76
2023/04/05 03:15:31;;;;;;;3.10;1.60;;;10.20;72.20;;;;;;10944858;32;20041;-77
2023/04/05 03:21:35;;;;;;;3.28;1.60;;;10.00;72.20;;;;;;10944544;32;20443;-76
2023/04/05 03:27:38;;;;;;;5.87;1.92;;;9.80;72.60;;;;;;10944874;32;20415;-76
2023/04/05 03:33:41;;;;;;;4.07;2.05;;;9.70;73.00;;;;;;10940022;32;20037;-77
2023/04/05 03:39:43;;;;;;;3.80;2.40;;;9.60;73.20;;;;;;10943163;32;20033;-76
2023/04/05 03:45:46;;;;;;;4.20;2.33;;;9.60;73.10;;;;;;10942854;32;20290;-77
2023/04/05 03:51:48;;;;;;;3.12;2.33;;;9.70;72.80;;;;;;10943563;32;20014;-76
2023/04/05 03:57:53;;;;;;;4.45;2.58;;;9.50;72.80;;;;;;10942828;32;20336;-77
2023/04/05 04:03:56;;;;;;;5.28;3.25;;;9.50;72.70;;;;;;10943548;32;20045;-76
2023/04/05 04:09:59;;;;;;;3.65;2.22;;;9.50;71.80;;;;;;10941074;32;20061;-76
2023/04/05 04:16:02;;;;;;;3.15;1.85;;;9.50;71.30;;;;;;10941938;32;20015;-76
2023/04/05 04:22:08;;;;;;;3.87;2.80;;;9.40;71.90;;;;;;10942573;32;20026;-76
2023/04/05 04:28:18;;;;;;;6.30;2.33;;;9.40;71.90;;;;;;10943014;32;20042;-76
2023/04/05 04:34:21;;;;;;;4.23;2.90;;;9.60;71.20;;;;;;10941509;32;20011;-77
2023/04/05 04:40:52;;;;;;;4.43;2.30;;;9.80;70.50;;;;;;10924341;32;20035;-77
2023/04/05 04:46:55;;;;;;;2.47;1.27;;;10.00;69.90;;;;;;10939444;32;20023;-77
2023/04/05 04:53:00;;;;;;;3.17;1.67;;;10.00;70.30;;;;;;10937838;32;20023;-76
2023/04/05 04:59:02;;;;;;;2.95;1.55;;;9.80;70.90;;;;;;10935762;32;20043;-77
2023/04/05 05:05:06;;;;;;;3.12;1.75;;;9.70;71.10;;;;;;10942266;32;20353;-77
2023/04/05 05:11:08;;;;;;;1.75;0.90;;;9.70;71.30;;;;;;10942397;32;20049;-76
2023/04/05 05:17:10;;;;;;;3.20;1.70;;;9.70;71.60;;;;;;10941970;32;20057;-76
2023/04/05 05:23:12;;;;;;;2.22;1.45;;;9.70;71.70;;;;;;10938819;32;20069;-74
2023/04/05 05:29:14;;;;;;;3.90;1.80;;;9.80;71.80;;;;;;10929315;32;20035;-73
2023/04/05 05:35:17;;;;;;;2.72;1.80;;;9.90;72.00;;;;;;10948724;32;20019;-76
2023/04/05 05:41:21;;;;;;;8.00;3.75;;;10.10;72.20;;;;;;10944673;32;20065;-76
2023/04/05 05:47:23;;;;;;;4.72;2.37;;;10.20;72.50;;;;;;10945119;32;20041;-76
2023/04/05 05:53:25;;;;;;;6.70;2.72;;;10.50;72.80;;;;;;10947597;32;20415;-76
2023/04/05 05:59:27;;;;;;;4.40;2.85;;;10.60;72.70;;;;;;10945476;32;20031;-76
2023/04/05 06:05:29;;;;;;;6.00;3.60;;;10.70;72.70;;;;;;10942528;32;20018;-76
2023/04/05 06:11:31;;;;;;;6.22;3.78;;;10.80;72.80;;;;;;10947263;32;20011;-77
2023/04/05 06:17:35;;;;;;;3.20;2.37;;;10.80;72.90;;;;;;10941251;32;20413;-77
2023/04/05 06:23:37;;;;;;;6.03;3.15;;;11.00;73.80;;;;;;10945940;32;20041;-77
2023/04/05 06:29:40;;;;;;;5.22;3.60;;;11.20;74.30;;;;;;10944532;32;20374;-77
2023/04/05 06:35:42;;;;;;;5.85;3.28;;;11.30;74.20;;;;;;10946837;32;20037;-77
2023/04/05 06:41:44;;;;;;;6.47;3.90;;;11.20;75.00;;;;;;10946605;32;20023;-77
2023/04/05 06:47:46;;;;;;;8.45;4.85;;;11.20;75.20;;;;;;10945825;32;20015;-76
2023/04/05 06:53:48;;;;;;;7.03;3.12;;;10.60;71.70;;;;;;10944517;32;20030;-77
2023/04/05 06:59:53;;;;;;;5.32;3.22;;;10.30;74.20;;;;;;10930460;32;20070;-76
2023/04/05 07:05:58;;;;;;;4.25;3.17;;;10.40;75.40;;;;;;10907021;32;20027;-76
2023/04/05 07:12:02;;;;;;;4.43;2.58;;;10.70;76.40;;;;;;10907264;32;20642;-76
2023/04/05 07:18:04;;;;;;;3.97;3.00;;;10.50;74.80;;;;;;10905013;32;20188;-76
2023/04/05 07:24:07;;;;;;;5.12;2.87;;;10.70;77.10;;;;;;10907497;32;20530;-76
2023/04/05 07:30:09;;;;;;;11.07;4.43;;;10.90;77.20;;;;;;10903085;32;20023;-76
2023/04/05 07:36:11;;;;;;;11.10;3.33;;;10.90;75.90;;;;;;10905880;32;20019;-76
2023/04/05 07:42:13;;;;;;;5.10;3.05;;;10.90;75.70;;;;;;10906194;32;20045;-76
2023/04/05 07:48:15;;;;;;;6.55;5.03;;;10.90;75.90;;;;;;10907335;32;20015;-77
2023/04/05 07:54:17;;;;;;;9.60;4.62;;;11.20;76.90;;;;;;10940605;27;20027;-75
2023/04/05 08:00:20;;;;;;;8.50;4.72;;;11.10;75.40;;;;;;10943050;32;20023;-76
2023/04/05 08:06:23;;;;;;;10.02;4.68;;;10.90;74.80;;;;;;10943716;32;20037;-75
2023/04/05 08:12:26;;;;;;;5.43;3.70;;;11.20;75.40;;;;;;10943676;32;20015;-77
2023/04/05 08:18:28;;;;;;;4.47;3.70;;;11.20;75.80;;;;;;10943880;32;20011;-77
2023/04/05 08:24:39;;;;;;;6.12;4.40;;;11.20;75.10;;;;;;10943242;32;20023;-75
2023/04/05 08:30:41;;;;;;;4.37;3.28;;;11.20;74.60;;;;;;10940438;32;20054;-77
2023/04/05 08:36:43;;;;;;;4.87;3.33;;;11.20;74.50;;;;;;10939083;32;20435;-77
2023/04/05 08:43:01;;;;;;;4.12;3.22;;;11.30;76.40;;;;;;10939756;32;20031;-76
2023/04/05 08:49:07;;;;;;;8.30;3.08;;;11.50;75.50;;;;;;10942545;32;20321;-76
2023/04/05 08:55:12;;;;;;;3.92;2.37;;;11.60;74.90;;;;;;10942525;32;20019;-76
2023/04/05 09:01:15;;;;;;;3.28;2.42;;;11.60;74.30;;;;;;10936815;32;20026;-77
2023/04/05 09:07:19;;;;;;;7.30;5.30;;;11.70;76.20;;;;;;10946604;32;20295;-76
2023/04/05 09:13:21;;;;;;;3.47;2.78;;;11.80;76.00;;;;;;10949572;32;20045;-76
2023/04/05 09:19:24;;;;;;;6.90;4.72;;;11.70;74.50;;;;;;10947122;32;20053;-76
2023/04/05 09:25:32;;;;;;;6.07;2.55;;;11.70;74.60;;;;;;10917193;32;20038;-77
2023/04/05 09:31:35;;;;;;;3.20;2.20;;;11.70;74.30;;;;;;10903257;32;20062;-76
2023/04/05 09:37:57;;;;;;;5.15;2.80;;;11.70;75.90;;;;;;10905146;32;20402;-77
2023/04/05 09:43:59;;;;;;;;;;;11.90;75.80;;;;;;10902727;32;20035;-76
2023/04/05 09:50:22;;;;;;;6.87;4.30;;;12.00;74.70;;;;;;10905632;32;20056;-76
2023/04/05 09:56:26;;;;;;;10.45;4.68;;;12.10;75.10;;;;;;10903630;32;20027;-76
2023/04/05 10:02:36;;;;;;;11.48;5.22;;;12.10;74.20;;;;;;10905182;32;20050;-76
2023/04/05 10:08:38;;;;;;;3.92;2.90;;;12.20;74.00;;;;;;10905148;32;20353;-77
2023/04/05 10:14:41;;;;;;;5.57;2.53;;;12.10;76.00;;;;;;10906472;32;20341;-76
2023/04/05 10:20:49;;;;;;;4.03;2.67;;;12.20;75.40;;;;;;10908868;32;20019;-77
2023/04/05 10:27:04;;;;;;;3.90;3.00;;;12.50;76.80;;;;;;10907172;32;20058;-77
2023/04/05 10:33:12;;;;;;;4.12;2.60;;;12.90;75.30;;;;;;10921675;32;20054;-76
2023/04/05 10:39:28;;;;;;;4.65;2.60;;;13.00;72.40;;;;;;10941971;32;20328;-77
2023/04/05 10:45:31;;;;;;;5.00;3.37;;;13.10;71.40;;;;;;10940401;32;20302;-77
2023/04/05 10:51:33;;;;;;;3.40;2.78;;;13.30;71.10;;;;;;10940585;32;20027;-77
2023/04/05 10:57:36;;;;;;;5.65;4.12;;;13.50;72.60;;;;;;10937336;32;20187;-77
2023/04/05 11:03:47;;;;;;;4.55;2.90;;;13.70;73.30;;;;;;10939302;32;20050;-76
2023/04/05 11:10:03;;;;;;;6.78;4.10;;;13.80;73.50;;;;;;10925110;32;20274;-76
2023/04/05 11:16:08;;;;;;;4.95;3.42;;;14.00;73.10;;;;;;10938659;32;20027;-77
2023/04/05 11:22:12;;;;;;;8.32;4.78;;;13.80;74.10;;;;;;10936505;32;20076;-77
2023/04/05 11:28:27;;;;;;;15.25;5.15;;;14.00;73.50;;;;;;10935268;32;20026;-77
2023/04/05 11:34:34;;;;;;;7.90;4.80;;;14.40;71.40;;;;;;10943273;32;20401;-76
2023/04/05 11:40:42;;;;;;;8.57;5.37;;;14.40;69.30;;;;;;10941054;32;20043;-76
2023/04/05 11:46:47;;;;;;;7.53;4.55;;;14.50;68.90;;;;;;10944105;32;20031;-77
2023/04/05 11:53:15;;;;;;;13.23;7.10;;;14.20;67.50;;;;;;10941421;32;20045;-76
2023/04/05 11:59:18;;;;;;;6.85;4.30;;;13.80;63.50;;;;;;10939862;32;20286;-76
2023/04/05 12:05:20;;;;;;;7.85;4.97;;;13.40;64.10;;;;;;10943599;32;20393;-76
2023/04/05 12:11:26;;;;;;;8.65;4.80;;;13.30;64.50;;;;;;10941804;32;20411;-76
2023/04/05 12:17:46;;;;;;;14.18;6.43;;;13.20;63.10;;;;;;10941278;32;20053;-76
2023/04/05 12:23:52;;;;;;;11.43;5.82;;;13.20;62.40;;;;;;10942695;32;20041;-76
2023/04/05 12:30:15;;;;;;;8.10;5.57;;;12.90;62.60;;;;;;10942548;32;20345;-76
2023/04/05 12:36:18;;;;;;;10.40;4.87;;;12.70;63.70;;;;;;10943500;32;20011;-76
2023/04/05 12:42:21;;;;;;;6.10;4.55;;;12.50;63.90;;;;;;10941608;32;20045;-76
2023/04/05 12:48:25;;;;;;;7.80;3.92;;;12.80;66.30;;;;;;10941788;32;20019;-76
2023/04/05 12:54:28;;;;;;;13.77;6.35;;;13.30;67.00;;;;;;10936236;32;20035;-76
2023/04/05 13:00:31;;;;;;;7.57;3.97;;;13.30;66.70;;;;;;10942202;32;20015;-76
2023/04/05 13:06:33;;;;;;;4.28;3.45;;;13.20;67.60;;;;;;10941804;32;20014;-74
2023/04/05 13:12:35;;;;;;;5.35;3.83;;;13.30;68.30;;;;;;10921015;32;20023;-73
2023/04/05 13:18:38;;;;;;;7.47;3.75;;;13.40;69.10;;;;;;10904046;32;20373;-73
2023/04/05 13:24:40;;;;;;;2.80;1.98;;;13.50;70.40;;;;;;10901348;32;20042;-74
2023/04/05 13:30:42;;;;;;;4.45;3.03;;;13.50;69.40;;;;;;10902649;32;20027;-73
2023/04/05 13:36:44;;;;;;;2.90;2.40;;;13.40;70.10;;;;;;10904217;32;20027;-73
2023/04/05 13:42:47;;;;;;;3.87;2.58;;;13.70;70.40;;;;;;10896682;32;20409;-74
2023/04/05 13:48:50;;;;;;;1.85;1.50;;;13.50;70.70;;;;;;10904270;32;20070;-73
2023/04/05 13:54:52;;;;;;;4.15;2.67;;;13.60;71.40;;;;;;10907797;32;20354;-73
2023/04/05 14:00:54;;;;;;;2.33;1.90;;;13.70;71.80;;;;;;10905949;32;20027;-73
2023/04/05 14:06:57;;;;;;;3.55;1.98;;;13.70;69.50;;;;;;10907725;32;20066;-73
2023/04/05 14:12:59;;;;;;;6.25;3.60;;;13.50;71.80;;;;;;10910169;32;20127;-73
2023/04/05 14:19:01;;;;;;;6.20;2.03;;;13.70;72.90;;;;;;10909241;32;20081;-73
2023/04/05 14:25:03;;;;;;;5.22;3.30;;;13.80;71.90;;;;;;10903459;32;20042;-73
2023/04/05 14:31:06;;;;;;;2.97;1.98;;;13.80;73.10;;;;;;10909372;32;20023;-73
2023/04/05 14:37:08;;;;;;;4.28;1.95;;;14.00;72.90;;;;;;10908014;32;20012;-72
2023/04/05 14:43:11;;;;;;;3.12;2.40;;;14.00;72.90;;;;;;10908415;32;20474;-73
2023/04/05 14:49:13;;;;;;;6.40;3.35;;;14.30;72.90;;;;;;10916121;32;20409;-73
2023/04/05 14:55:15;;;;;;;3.53;2.35;;;14.50;70.90;;;;;;10944969;32;20046;-73
2023/04/05 15:01:17;;;;;;;3.20;1.95;;;14.70;70.20;;;;;;10946122;32;20026;-73
2023/04/05 15:07:20;;;;;;;2.42;1.85;;;14.80;69.90;;;;;;10945809;32;20022;-73
2023/04/05 15:13:24;;;;;;;3.62;2.90;;;14.80;70.80;;;;;;10945521;32;20052;-73
2023/04/05 15:19:28;;;;;;;3.22;2.83;;;15.00;71.40;;;;;;10930213;32;20027;-73
2023/04/05 15:25:31;;;;;;;3.87;2.12;;;15.30;71.80;;;;;;10944939;32;20024;-73
2023/04/05 15:31:33;;;;;;;3.72;1.85;;;15.50;71.20;;;;;;10941999;32;20061;-73
2023/04/05 15:37:35;;;;;;;2.75;1.80;;;15.50;71.50;;;;;;10943811;32;20019;-73
2023/04/05 15:43:38;;;;;;;3.00;2.10;;;15.50;71.80;;;;;;10943754;32;20022;-73
2023/04/05 15:49:42;;;;;;;2.80;1.83;;;15.10;69.80;;;;;;10724037;27;7246222;-73
2023/04/05 15:55:44;;;;;;;1.90;1.60;;;14.80;71.40;;;;;;10942231;32;20056;-73
2023/04/05 16:01:46;;;;;;;1.83;1.40;;;14.70;71.30;;;;;;10943247;32;20018;-73
2023/04/05 16:07:48;;;;;;;1.77;1.50;;;14.70;72.30;;;;;;10937349;32;20037;-73
2023/04/05 16:13:52;;;;;;;1.87;1.77;;;14.90;71.70;;;;;;10934110;32;20023;-73
2023/04/05 16:19:55;;;;;;;1.87;1.35;;;15.00;71.20;;;;;;10940243;32;20027;-73
2023/04/05 16:26:12;;;;;;;2.55;1.80;;;14.90;72.10;;;;;;10939840;32;20027;-73
2023/04/05 16:32:16;;;;;;;2.92;1.77;;;15.50;72.50;;;;;;10941622;32;20041;-73
2023/04/05 16:38:18;;;;;;;2.35;1.75;;;16.40;71.90;;;;;;10941402;32;20015;-73
2023/04/05 16:44:20;;;;;;;2.72;1.50;;;17.70;70.40;;;;;;10942435;32;20027;-73
2023/04/05 16:50:22;;;;;;;2.60;1.60;;;19.00;68.70;;;;;;10941674;32;20340;-74
2023/04/05 16:56:24;;;;;;;1.35;1.25;;;19.70;69.00;;;;;;10941477;32;20049;-72
2023/04/05 17:02:27;;;;;;;1.73;1.27;;;19.30;70.60;;;;;;10940550;32;20015;-72
2023/04/05 17:08:29;;;;;;;3.10;1.42;;;18.70;72.20;;;;;;10941255;32;20057;-72
2023/04/05 17:14:31;;;;;;;2.62;1.52;;;18.40;73.70;;;;;;10940972;32;20049;-72
2023/04/05 17:20:33;;;;;;;3.53;1.70;;;18.20;74.20;;;;;;10941260;32;20023;-72
2023/04/05 17:26:35;;;;;;;2.62;1.60;;;17.70;75.30;;;;;;10945114;32;20045;-72
2023/04/05 17:32:37;;;;;;;4.05;2.58;;;16.80;76.00;;;;;;10934362;32;20070;-71
2023/04/05 17:38:39;;;;;;;2.72;1.95;;;15.60;77.90;;;;;;10905547;32;20416;-72
2023/04/05 17:44:42;;;;;;;3.87;2.60;;;14.80;78.90;;;;;;10909608;32;20019;-72
2023/04/05 17:50:44;;;;;;;3.75;2.42;;;14.40;79.20;;;;;;10907866;32;20042;-72
2023/04/05 17:56:46;;;;;;;5.45;3.87;;;13.90;79.80;;;;;;10907546;32;20015;-72
2023/04/05 18:02:48;;;;;;;9.63;5.65;;;13.70;80.30;;;;;;10907884;32;20022;-72
2023/04/05 18:08:50;;;;;;;7.47;5.45;;;13.70;80.20;;;;;;10907741;32;20042;-72
2023/04/05 18:14:52;;;;;;;6.87;4.62;;;13.50;80.00;;;;;;10908994;32;20417;-72
2023/04/05 18:20:55;;;;;;;8.07;4.55;;;13.20;80.00;;;;;;10909026;32;20020;-72
2023/04/05 18:26:57;;;;;;;6.28;4.10;;;13.20;80.60;;;;;;10906948;32;20061;-72
2023/04/05 18:32:59;;;;;;;5.47;3.12;;;13.30;79.80;;;;;;10908829;32;20015;-72
2023/04/05 18:39:02;;;;;;;5.43;3.83;;;13.40;79.40;;;;;;10908296;32;20082;-72
2023/04/05 18:45:05;;;;;;;7.78;4.55;;;13.40;79.20;;;;;;10908421;32;20309;-71
2023/04/05 18:51:07;;;;;;;8.32;5.60;;;13.40;78.60;;;;;;10905714;32;20019;-72
2023/04/05 18:57:09;;;;;;;8.20;5.65;;;13.20;78.70;;;;;;10909374;32;20171;-72
2023/04/05 19:03:11;;;;;;;7.05;5.05;;;13.00;79.00;;;;;;10945807;32;20019;-72
2023/04/05 19:09:15;;;;;;;9.98;7.00;;;13.10;78.40;;;;;;10944525;32;20027;-72
2023/04/05 19:15:18;;;;;;;8.63;6.00;;;12.80;78.30;;;;;;10944159;32;20037;-72
2023/04/05 19:21:20;;;;;;;7.93;5.97;;;12.70;78.90;;;;;;10939155;32;20030;-72
2023/04/05 19:27:23;;;;;;;10.27;7.10;;;12.80;78.50;;;;;;10938130;32;20376;-72
2023/04/05 19:33:25;;;;;;;10.13;5.50;;;12.80;78.00;;;;;;10945325;32;20313;-72
2023/04/05 19:39:28;;;;;;;7.60;6.03;;;12.80;77.70;;;;;;10943009;32;20014;-72
2023/04/05 19:45:31;;;;;;;8.02;6.55;;;12.70;77.50;;;;;;10944118;32;20337;-72
2023/04/05 19:51:34;;;;;;;9.75;7.43;;;12.50;77.50;;;;;;10938972;32;20458;-72
2023/04/05 19:57:40;;;;;;;11.20;7.62;;;12.40;77.70;;;;;;10944791;32;20325;-72
2023/04/05 20:03:42;;;;;;;11.02;6.87;;;12.50;77.50;;;;;;10942328;32;20022;-72
2023/04/05 20:09:44;;;;;;;9.80;6.05;;;12.50;77.30;;;;;;10943320;32;20042;-72
2023/04/05 20:15:50;;;;;;;8.65;5.97;;;12.40;77.10;;;;;;10942968;32;20019;-72
2023/04/05 20:21:52;;;;;;;7.55;6.35;;;12.30;77.10;;;;;;10940310;32;20034;-72
2023/04/05 20:27:55;;;;;;;10.00;7.78;;;12.20;77.30;;;;;;10942678;32;20049;-73
2023/04/05 20:34:11;;;;;;;10.93;8.05;;;12.20;77.00;;;;;;10941923;32;20019;-72
2023/04/05 20:40:14;;;;;;;7.80;6.75;;;12.30;77.00;;;;;;10942742;32;20073;-72
2023/04/05 20:46:16;;;;;;;10.77;6.70;;;12.10;77.10;;;;;;10942420;32;20023;-72
2023/04/05 20:52:19;;;;;;;13.55;10.25;;;11.90;77.30;;;;;;10939717;32;20019;-72
2023/04/05 20:58:22;;;;;;;11.18;7.78;;;11.80;77.30;;;;;;10946345;32;20019;-72
2023/04/05 21:04:25;;;;;;;15.60;9.85;;;11.70;77.00;;;;;;10954646;32;20046;-72
2023/04/05 21:10:27;;;;;;;11.70;8.02;;;11.70;77.40;;;;;;10954676;32;20019;-73
2023/04/05 21:16:30;;;;;;;12.95;8.57;;;11.70;77.30;;;;;;10954587;32;20313;-72
2023/04/05 21:22:32;;;;;;;11.75;9.90;;;11.50;77.70;;;;;;10951788;32;20053;-72
2023/04/05 21:28:35;;;;;;;12.93;11.02;;;11.50;77.70;;;;;;10954341;32;20385;-72
2023/04/05 21:34:37;;;;;;;9.45;7.68;;;11.60;77.40;;;;;;10953728;32;20014;-72
2023/04/05 21:40:39;;;;;;;10.32;7.50;;;11.50;77.30;;;;;;10952441;32;20037;-72
2023/04/05 21:46:42;;;;;;;10.02;7.70;;;11.50;77.30;;;;;;10953399;32;20023;-72
2023/04/05 21:52:44;;;;;;;12.10;9.50;;;11.50;77.00;;;;;;10953079;32;20019;-72
2023/04/05 21:58:47;;;;;;;15.05;12.13;;;11.40;76.50;;;;;;10938520;32;20035;-72
2023/04/05 22:04:49;;;;;;;17.87;13.45;;;11.40;76.70;;;;;;10953712;32;20019;-72
2023/04/05 22:10:52;;;;;;;14.32;10.93;;;11.30;76.50;;;;;;10947865;32;20027;-72
2023/04/05 22:16:55;;;;;;;15.25;9.70;;;11.20;76.30;;;;;;10946762;32;20015;-72
2023/04/05 22:22:57;;;;;;;13.75;8.75;;;11.20;76.60;;;;;;10946568;32;20023;-72
2023/04/05 22:29:01;;;;;;;13.62;9.70;;;11.10;76.70;;;;;;10947429;32;20042;-72
2023/04/05 22:35:03;;;;;;;14.25;10.23;;;11.00;76.80;;;;;;10947299;32;20054;-72
2023/04/05 22:41:06;;;;;;;15.65;10.68;;;10.90;76.90;;;;;;10946963;32;20042;-72
2023/04/05 22:47:08;;;;;;;17.65;14.32;;;10.70;77.10;;;;;;10944607;32;20065;-71
2023/04/05 22:53:12;;;;;;;12.43;9.45;;;10.80;77.10;;;;;;10931452;32;20049;-72
2023/04/05 22:59:14;;;;;;;12.52;9.63;;;11.00;76.30;;;;;;10945931;32;20385;-72
2023/04/05 23:05:17;;;;;;;12.25;9.40;;;11.00;76.00;;;;;;10946147;32;20279;-72
2023/04/05 23:11:21;;;;;;;15.55;11.98;;;10.80;76.00;;;;;;10943799;32;20030;-72
2023/04/05 23:17:23;;;;;;;13.30;10.90;;;10.70;76.30;;;;;;10945814;32;20416;-72
2023/04/05 23:23:25;;;;;;;16.48;13.10;;;10.70;76.20;;;;;;10942331;32;20034;-72
2023/04/05 23:29:28;;;;;;;14.05;9.20;;;10.70;76.00;;;;;;10945185;32;20011;-72
2023/04/05 23:35:33;;;;;;;15.10;11.65;;;10.70;75.60;;;;;;10942802;32;20326;-72
2023/04/05 23:41:36;;;;;;;10.95;8.32;;;10.60;76.20;;;;;;10943853;32;20015;-72
2023/04/05 23:47:38;;;;;;;15.75;12.50;;;10.60;75.60;;;;;;10944493;32;20018;-71
2023/04/05 23:53:40;;;;;;;12.40;9.70;;;10.40;76.20;;;;;;10943065;27;20510;-72
2023/04/05 23:59:42;;;;;;;13.43;8.77;;;10.40;76.40;;;;;;10941884;32;20041;-72
